Time;durP1;ratioP1;P1;durP2;ratioP2;P2;SDS_P1;SDS_P2;PMS_P1;PMS_P2;Temp;Humidity;BMP_temperature;BMP_pressure;BME280_temperature;BME280_humidity;BME280_pressure;Samples;Min_cycle;Max_cycle;Signal;HPM_P1;HPM_P2
2021/07/10 00:02:09;;;;;;;5.88;2.55;;;16.00;97.70;;;;;;5094188;28;20016;-76
2021/07/10 00:04:35;;;;;;;9.38;2.80;;;15.80;98.40;;;;;;5093734;28;20080;-75
2021/07/10 00:07:04;;;;;;;5.57;2.30;;;15.50;98.90;;;;;;5094030;28;20028;-74
2021/07/10 00:09:30;;;;;;;4.57;2.28;;;15.30;99.50;;;;;;5092728;28;20096;-75
2021/07/10 00:11:56;;;;;;;5.15;2.40;;;15.60;98.90;;;;;;5093634;28;20024;-76
2021/07/10 00:14:22;;;;;;;4.95;2.17;;;15.80;98.40;;;;;;5094031;28;20034;-75
2021/07/10 00:16:48;;;;;;;;;;;15.90;98.30;;;;;;5092988;28;20073;-76
2021/07/10 00:19:15;;;;;;;7.78;2.50;;;15.60;98.60;;;;;;5092493;28;19907;-75
2021/07/10 00:21:41;;;;;;;11.30;2.10;;;15.70;98.70;;;;;;5093700;28;20051;-75
2021/07/10 00:24:07;;;;;;;6.22;2.30;;;15.90;97.90;;;;;;5093750;28;20024;-75
2021/07/10 00:26:32;;;;;;;5.88;2.03;;;16.00;97.80;;;;;;5092411;28;20471;-76
2021/07/10 00:29:00;;;;;;;4.35;2.20;;;16.00;97.70;;;;;;5093651;28;20095;-75
2021/07/10 00:31:26;;;;;;;5.75;2.10;;;15.90;98.10;;;;;;5093199;28;20395;-75
2021/07/10 00:33:51;;;;;;;5.35;2.50;;;15.70;98.60;;;;;;5093585;28;20020;-76
2021/07/10 00:36:17;;;;;;;;;;;15.70;98.90;;;;;;5093964;28;20032;-75
2021/07/10 00:38:43;;;;;;;5.82;2.60;;;15.60;99.10;;;;;;5093301;28;19904;-74
2021/07/10 00:41:08;;;;;;;;;;;15.50;99.40;;;;;;5093827;28;20020;-74
2021/07/10 00:43:34;;;;;;;10.82;3.20;;;15.40;99.60;;;;;;5093506;28;19919;-75
2021/07/10 00:46:00;;;;;;;;;;;15.30;99.90;;;;;;5093824;28;20057;-76
2021/07/10 00:48:26;;;;;;;8.00;2.97;;;15.20;99.90;;;;;;5093683;28;19911;-74
2021/07/10 00:50:51;;;;;;;;;;;15.30;99.70;;;;;;5093794;28;20016;-75
2021/07/10 00:53:17;;;;;;;6.57;2.38;;;15.40;99.10;;;;;;5093495;28;19955;-76
2021/07/10 00:55:43;;;;;;;;;;;15.60;98.70;;;;;;5093856;28;20032;-73
2021/07/10 00:58:10;;;;;;;5.43;2.40;;;15.80;98.80;;;;;;5093468;28;19991;-75
2021/07/10 01:00:36;;;;;;;5.95;2.40;;;15.90;98.40;;;;;;5092627;28;20042;-76
2021/07/10 01:03:03;;;;;;;6.65;2.60;;;16.20;97.90;;;;;;5093113;28;20016;-74
2021/07/10 01:05:31;;;;;;;6.15;2.40;;;16.30;97.70;;;;;;5093055;28;20052;-75
2021/07/10 01:07:57;;;;;;;4.78;2.40;;;16.20;97.60;;;;;;5093402;28;20042;-75
2021/07/10 01:10:24;;;;;;;6.68;2.47;;;16.20;97.70;;;;;;5091818;28;20050;-76
2021/07/10 01:12:51;;;;;;;5.65;2.92;;;16.10;97.90;;;;;;5093092;28;20036;-75
2021/07/10 01:15:21;;;;;;;6.20;2.45;;;16.00;97.70;;;;;;5093048;28;20454;-75
2021/07/10 01:17:47;;;;;;;6.93;2.53;;;16.10;97.90;;;;;;5093078;28;20073;-75
2021/07/10 01:20:16;;;;;;;6.05;2.30;;;16.10;97.40;;;;;;5092973;28;20028;-76
2021/07/10 01:22:42;;;;;;;7.28;2.30;;;16.30;97.60;;;;;;5091604;28;20024;-76
2021/07/10 01:25:12;;;;;;;4.20;2.17;;;16.30;97.50;;;;;;5093160;28;20024;-75
2021/07/10 01:27:38;;;;;;;7.03;2.70;;;16.30;97.60;;;;;;5092953;28;20484;-75
2021/07/10 01:30:06;;;;;;;6.28;2.90;;;16.10;97.50;;;;;;5092971;28;20031;-74
2021/07/10 01:32:33;;;;;;;6.90;2.67;;;15.80;98.70;;;;;;5093164;28;20025;-75
2021/07/10 01:34:59;;;;;;;6.97;2.80;;;15.60;98.90;;;;;;5092974;28;20476;-74
2021/07/10 01:37:25;;;;;;;9.00;2.60;;;15.50;99.30;;;;;;5092868;28;20058;-75
2021/07/10 01:39:50;;;;;;;5.78;2.67;;;15.60;99.20;;;;;;5092763;28;20029;-77
2021/07/10 01:42:16;;;;;;;;;;;15.80;98.60;;;;;;5093826;28;20016;-75
2021/07/10 01:44:42;;;;;;;5.90;2.88;;;15.90;98.00;;;;;;5096790;28;20283;-76
2021/07/10 01:47:08;;;;;;;7.05;3.05;;;16.00;97.40;;;;;;5096885;28;20388;-76
2021/07/10 01:49:34;;;;;;;7.65;2.80;;;15.60;98.30;;;;;;5096774;28;20035;-75
2021/07/10 01:52:00;;;;;;;;;;;15.70;98.50;;;;;;5097050;28;20508;-76
2021/07/10 01:54:26;;;;;;;9.05;2.90;;;15.70;98.90;;;;;;5097072;28;19904;-76
2021/07/10 01:56:52;;;;;;;;;;;15.60;98.80;;;;;;5097001;28;20035;-75
2021/07/10 01:59:18;;;;;;;6.32;2.72;;;15.50;99.10;;;;;;5096421;28;19907;-75
2021/07/10 02:01:51;;;;;;;8.57;2.90;;;15.50;99.10;;;;;;5096520;28;20024;-75
2021/07/10 02:04:19;;;;;;;7.93;3.08;;;15.60;99.20;;;;;;5096422;28;20036;-76
2021/07/10 02:06:46;;;;;;;7.25;2.88;;;15.60;99.00;;;;;;5096358;28;20016;-75
2021/07/10 02:09:12;;;;;;;7.45;2.92;;;15.50;99.30;;;;;;5096310;28;20024;-75
2021/07/10 02:11:43;;;;;;;9.27;2.92;;;15.40;99.30;;;;;;5094954;28;20480;-75
2021/07/10 02:14:09;;;;;;;7.53;3.00;;;15.40;99.70;;;;;;5096236;28;20032;-76
2021/07/10 02:16:34;;;;;;;8.00;3.13;;;15.50;99.80;;;;;;5094899;28;20396;-76
2021/07/10 02:19:00;;;;;;;7.35;3.08;;;15.40;99.70;;;;;;5096117;28;20541;-76
2021/07/10 02:21:26;;;;;;;;;;;15.30;99.90;;;;;;5096396;28;20020;-76
2021/07/10 02:23:52;;;;;;;8.68;2.83;;;15.40;99.90;;;;;;5094693;28;19954;-76
2021/07/10 02:26:18;;;;;;;;;;;15.70;99.30;;;;;;5096408;28;20024;-77
2021/07/10 02:28:44;;;;;;;6.28;2.65;;;15.70;99.20;;;;;;5095924;28;19911;-76
2021/07/10 02:31:10;;;;;;;;;;;15.60;99.70;;;;;;5096111;28;20016;-75
2021/07/10 02:33:35;;;;;;;6.00;2.88;;;15.60;99.70;;;;;;5094291;28;19927;-76
2021/07/10 02:36:01;;;;;;;10.00;2.95;;;15.80;99.30;;;;;;5095600;28;20020;-75
2021/07/10 02:38:27;;;;;;;;;;;15.70;99.30;;;;;;5096240;28;20096;-76
2021/07/10 02:40:53;;;;;;;7.15;2.80;;;15.60;99.70;;;;;;5095634;28;20364;-76
2021/07/10 02:43:18;;;;;;;;;;;15.50;99.70;;;;;;5096285;28;20024;-74
2021/07/10 02:45:45;;;;;;;9.95;3.53;;;15.30;99.90;;;;;;5095765;28;20279;-75
2021/07/10 02:48:12;;;;;;;7.93;3.15;;;15.20;99.90;;;;;;5095618;28;20020;-75
2021/07/10 02:50:39;;;;;;;7.20;3.15;;;15.20;99.90;;;;;;5095515;28;20023;-76
2021/07/10 02:53:06;;;;;;;8.88;3.60;;;15.30;99.90;;;;;;5095142;28;20016;-75
2021/07/10 02:55:33;;;;;;;8.40;3.70;;;15.20;99.90;;;;;;5095407;28;20099;-74
2021/07/10 02:57:59;;;;;;;9.27;3.58;;;15.10;99.90;;;;;;5094161;28;20028;-75
2021/07/10 03:00:27;;;;;;;8.88;3.60;;;15.20;99.90;;;;;;5095215;28;20052;-75
2021/07/10 03:02:53;;;;;;;10.88;3.53;;;15.30;99.90;;;;;;5095273;28;20020;-75
2021/07/10 03:05:19;;;;;;;8.65;3.60;;;15.30;99.90;;;;;;5095240;28;20036;-75
2021/07/10 03:07:45;;;;;;;;;;;15.30;99.90;;;;;;5095643;28;20032;-74
2021/07/10 03:10:14;;;;;;;10.93;3.88;;;15.20;99.90;;;;;;5095199;28;19911;-75
2021/07/10 03:12:41;;;;;;;9.13;4.03;;;15.20;99.90;;;;;;5095260;28;20031;-75
2021/07/10 03:15:07;;;;;;;;;;;15.10;99.90;;;;;;5095464;28;20031;-75
2021/07/10 03:17:33;;;;;;;9.95;3.78;;;15.20;99.90;;;;;;5094997;28;19919;-76
2021/07/10 03:19:58;;;;;;;11.73;4.10;;;15.20;99.90;;;;;;5094888;28;20024;-76
2021/07/10 03:22:24;;;;;;;9.13;3.65;;;15.20;99.90;;;;;;5094900;28;20024;-77
2021/07/10 03:24:50;;;;;;;8.65;3.63;;;15.20;99.90;;;;;;5093534;28;20454;-76
2021/07/10 03:27:16;;;;;;;8.75;3.50;;;15.10;99.90;;;;;;5094712;28;20516;-75
2021/07/10 03:29:41;;;;;;;;;;;15.20;99.90;;;;;;5095417;28;20411;-76
2021/07/10 03:32:07;;;;;;;9.27;3.72;;;15.30;99.90;;;;;;5093424;28;19908;-77
2021/07/10 03:34:33;;;;;;;;;;;15.30;99.90;;;;;;5095171;28;20102;-75
2021/07/10 03:36:59;;;;;;;11.50;4.00;;;15.30;99.90;;;;;;5094636;28;19939;-76
2021/07/10 03:39:25;;;;;;;12.38;4.35;;;15.20;99.90;;;;;;5095003;28;20024;-74
2021/07/10 03:41:51;;;;;;;11.00;4.60;;;15.20;99.90;;;;;;5093164;28;20036;-76
2021/07/10 03:44:17;;;;;;;;;;;15.10;99.90;;;;;;5094931;28;20052;-76
2021/07/10 03:46:45;;;;;;;11.10;4.10;;;15.10;99.90;;;;;;5094534;28;19954;-75
2021/07/10 03:49:11;;;;;;;9.38;4.35;;;15.00;99.90;;;;;;5094383;28;20028;-76
2021/07/10 03:51:37;;;;;;;;;;;15.00;99.90;;;;;;5093499;28;20407;-76
2021/07/10 03:54:04;;;;;;;10.77;4.28;;;15.10;99.90;;;;;;5094724;28;19904;-76
2021/07/10 03:56:30;;;;;;;11.63;4.30;;;15.10;99.90;;;;;;5094502;28;20020;-75
2021/07/10 03:58:55;;;;;;;8.75;3.88;;;15.10;99.90;;;;;;5093908;28;20027;-76
2021/07/10 04:01:21;;;;;;;10.10;4.35;;;15.20;99.90;;;;;;5093675;28;20044;-76
2021/07/10 04:03:47;;;;;;;9.02;3.85;;;15.20;99.90;;;;;;5094133;28;20036;-75
2021/07/10 04:06:13;;;;;;;13.18;4.28;;;15.00;99.90;;;;;;5093439;28;20016;-75
2021/07/10 04:08:38;;;;;;;10.25;4.20;;;14.90;99.90;;;;;;5094043;28;20024;-76
2021/07/10 04:11:04;;;;;;;9.90;4.13;;;14.90;99.90;;;;;;5094166;28;20051;-76
2021/07/10 04:13:30;;;;;;;9.35;4.40;;;14.90;99.90;;;;;;5093969;28;20085;-76
2021/07/10 04:15:57;;;;;;;7.15;3.65;;;14.90;99.90;;;;;;5094270;28;20093;-76
2021/07/10 04:18:22;;;;;;;8.90;4.18;;;15.20;99.90;;;;;;5094024;28;20035;-75
2021/07/10 04:20:48;;;;;;;8.40;3.60;;;15.40;99.90;;;;;;5093843;28;20016;-75
2021/07/10 04:23:14;;;;;;;7.88;3.88;;;15.50;99.90;;;;;;5094103;28;20032;-76
2021/07/10 04:25:40;;;;;;;9.90;4.10;;;15.40;99.90;;;;;;5094140;28;20066;-77
2021/07/10 04:28:05;;;;;;;11.82;4.32;;;15.30;99.90;;;;;;5093739;28;20028;-76
2021/07/10 04:30:31;;;;;;;;;;;15.40;99.90;;;;;;5094320;28;20089;-76
2021/07/10 04:32:57;;;;;;;8.25;4.15;;;15.50;99.90;;;;;;5093679;28;19934;-76
2021/07/10 04:35:22;;;;;;;8.98;4.20;;;15.40;99.90;;;;;;5093661;28;20504;-76
2021/07/10 04:37:48;;;;;;;;;;;15.30;99.90;;;;;;5094334;28;20028;-76
2021/07/10 04:40:15;;;;;;;9.80;4.43;;;15.30;99.90;;;;;;5093443;28;20363;-75
2021/07/10 04:42:41;;;;;;;10.25;3.85;;;15.20;99.90;;;;;;5093504;28;20387;-76
2021/07/10 04:45:09;;;;;;;9.27;4.03;;;15.40;99.90;;;;;;5093494;28;20034;-75
2021/07/10 04:47:35;;;;;;;9.23;3.92;;;15.40;99.90;;;;;;5093560;28;20024;-76
2021/07/10 04:50:01;;;;;;;10.80;4.30;;;15.40;99.90;;;;;;5093509;28;20024;-75
2021/07/10 04:52:28;;;;;;;8.13;4.13;;;15.40;99.90;;;;;;5093464;28;20055;-76
2021/07/10 04:54:54;;;;;;;10.55;4.10;;;15.40;99.90;;;;;;5091980;28;20035;-76
2021/07/10 04:57:20;;;;;;;9.90;4.30;;;15.40;99.90;;;;;;5093270;28;20107;-75
2021/07/10 04:59:46;;;;;;;7.70;3.95;;;15.20;99.90;;;;;;5093322;28;20122;-76
2021/07/10 05:02:11;;;;;;;;;;;15.30;99.90;;;;;;5093640;28;20025;-76
2021/07/10 05:04:37;;;;;;;7.65;3.88;;;15.40;99.90;;;;;;5093483;28;19908;-75
2021/07/10 05:07:03;;;;;;;10.98;4.28;;;15.40;99.90;;;;;;5093181;28;20166;-74
2021/07/10 05:09:29;;;;;;;10.70;4.30;;;15.40;99.90;;;;;;5093359;28;20028;-75
2021/07/10 05:11:55;;;;;;;10.85;4.30;;;15.50;99.90;;;;;;5093178;28;20419;-75
2021/07/10 05:14:20;;;;;;;;;;;15.50;99.90;;;;;;5092199;28;20529;-77
2021/07/10 05:16:47;;;;;;;11.68;4.70;;;15.40;99.90;;;;;;5094632;28;19948;-76
2021/07/10 05:19:13;;;;;;;8.32;4.22;;;15.20;99.90;;;;;;5097265;28;20027;-75
2021/07/10 05:21:39;;;;;;;7.90;4.32;;;15.30;99.90;;;;;;5097179;28;20025;-75
2021/07/10 05:24:05;;;;;;;;;;;15.30;99.90;;;;;;5097563;28;20384;-76
2021/07/10 05:26:31;;;;;;;9.50;4.30;;;15.10;99.90;;;;;;5097276;28;19911;-75
2021/07/10 05:28:57;;;;;;;9.00;4.40;;;15.10;99.90;;;;;;5097104;28;20016;-75
2021/07/10 05:31:23;;;;;;;10.95;4.45;;;15.20;99.90;;;;;;5097410;28;20028;-74
2021/07/10 05:33:48;;;;;;;;;;;15.20;99.90;;;;;;5097433;28;20058;-76
2021/07/10 05:36:14;;;;;;;9.50;4.75;;;15.20;99.90;;;;;;5096988;28;20283;-75
2021/07/10 05:38:40;;;;;;;12.07;4.45;;;15.20;99.90;;;;;;5096934;28;20023;-76
2021/07/10 05:41:06;;;;;;;10.65;4.50;;;15.20;99.90;;;;;;5097023;28;20035;-76
2021/07/10 05:43:31;;;;;;;;;;;15.30;99.90;;;;;;5097495;28;20012;-75
2021/07/10 05:45:57;;;;;;;9.50;4.45;;;15.20;99.90;;;;;;5096781;28;19954;-75
2021/07/10 05:48:23;;;;;;;14.13;5.03;;;15.00;99.90;;;;;;5096843;28;20433;-74
2021/07/10 05:50:49;;;;;;;;;;;15.00;99.90;;;;;;5097119;28;20067;-76
2021/07/10 05:53:15;;;;;;;9.45;4.75;;;15.00;99.90;;;;;;5096700;28;19904;-76
2021/07/10 05:55:42;;;;;;;9.88;4.22;;;15.00;99.90;;;;;;5096608;28;20080;-77
2021/07/10 05:58:07;;;;;;;11.43;5.03;;;14.90;99.90;;;;;;5095224;28;20020;-76
2021/07/10 06:00:33;;;;;;;10.27;4.75;;;15.00;99.90;;;;;;5096329;28;20054;-77
2021/07/10 06:02:59;;;;;;;;;;;15.00;99.90;;;;;;5096891;28;20396;-76
2021/07/10 06:05:25;;;;;;;13.48;4.97;;;15.00;99.90;;;;;;5096469;28;19911;-76
2021/07/10 06:07:53;;;;;;;8.90;5.05;;;15.00;99.90;;;;;;5096389;28;20024;-75
2021/07/10 06:10:19;;;;;;;11.30;5.10;;;15.00;99.90;;;;;;5096042;28;20368;-75
2021/07/10 06:12:44;;;;;;;;;;;14.90;99.90;;;;;;5096759;28;20028;-76
2021/07/10 06:15:11;;;;;;;11.73;5.28;;;14.90;99.90;;;;;;5096458;28;19904;-75
2021/07/10 06:17:39;;;;;;;9.63;5.30;;;14.70;99.90;;;;;;5096359;28;20488;-75
2021/07/10 06:20:07;;;;;;;12.00;6.05;;;14.70;99.90;;;;;;5094804;28;20036;-74
2021/07/10 06:22:33;;;;;;;12.10;5.57;;;14.70;99.90;;;;;;5096016;28;20027;-74
2021/07/10 06:24:59;;;;;;;;;;;14.80;99.90;;;;;;5096541;28;20078;-76
2021/07/10 06:27:25;;;;;;;10.02;5.25;;;14.80;99.90;;;;;;5096034;28;19908;-76
2021/07/10 06:29:51;;;;;;;9.57;5.45;;;14.80;99.90;;;;;;5095661;28;20027;-74
2021/07/10 06:32:17;;;;;;;;;;;14.60;99.90;;;;;;5096482;28;20073;-76
2021/07/10 06:34:42;;;;;;;11.45;5.03;;;14.70;99.90;;;;;;5094725;28;19904;-75
2021/07/10 06:37:08;;;;;;;12.68;5.35;;;14.60;99.90;;;;;;5095941;28;20387;-75
2021/07/10 06:39:34;;;;;;;10.18;5.57;;;14.60;99.90;;;;;;5094603;28;20081;-75
2021/07/10 06:42:00;;;;;;;13.02;5.28;;;14.50;99.90;;;;;;5095788;28;20525;-76
2021/07/10 06:44:25;;;;;;;;;;;14.70;99.90;;;;;;5094939;28;20025;-75
2021/07/10 06:46:51;;;;;;;;;;;14.80;99.90;;;;;;5096248;28;19953;-76
2021/07/10 06:49:16;;;;;;;;;;;14.80;99.90;;;;;;5096386;28;19958;-75
2021/07/10 06:51:42;;;;;;;;;;;14.80;99.90;;;;;;5096120;28;20283;-77
2021/07/10 06:54:08;;;;;;;;;;;14.80;99.90;;;;;;5096075;28;19921;-75
2021/07/10 06:56:34;;;;;;;;;;;15.00;99.90;;;;;;5096392;28;19904;-75
2021/07/10 06:59:00;;;;;;;11.57;4.95;;;15.10;99.90;;;;;;5094082;28;19904;-75
2021/07/10 07:01:27;;;;;;;8.77;4.90;;;15.10;99.90;;;;;;5094096;28;20035;-75
2021/07/10 07:03:53;;;;;;;8.82;4.72;;;15.00;99.90;;;;;;5095418;28;20023;-76
2021/07/10 07:06:19;;;;;;;13.10;4.80;;;15.00;99.90;;;;;;5095342;28;20016;-75
2021/07/10 07:08:45;;;;;;;11.40;5.18;;;15.00;99.90;;;;;;5095375;28;20027;-76
2021/07/10 07:11:11;;;;;;;;;;;14.90;99.90;;;;;;5095738;28;20036;-76
2021/07/10 07:13:37;;;;;;;10.25;5.25;;;15.00;99.90;;;;;;5095278;28;19911;-76
2021/07/10 07:16:03;;;;;;;;;;;15.10;99.90;;;;;;5095612;28;20024;-76
2021/07/10 07:18:29;;;;;;;11.45;5.03;;;15.10;99.90;;;;;;5095180;28;19904;-76
2021/07/10 07:20:55;;;;;;;10.27;4.95;;;15.10;99.90;;;;;;5095132;28;20111;-76
2021/07/10 07:23:20;;;;;;;;;;;15.00;99.90;;;;;;5095382;28;20016;-76
2021/07/10 07:25:46;;;;;;;9.13;4.70;;;15.00;99.90;;;;;;5095012;28;19904;-76
2021/07/10 07:28:12;;;;;;;9.20;4.63;;;14.90;99.90;;;;;;5094623;28;20106;-77
2021/07/10 07:30:39;;;;;;;9.07;4.93;;;15.00;99.90;;;;;;5094875;28;20024;-75
2021/07/10 07:33:05;;;;;;;9.30;4.53;;;15.10;99.90;;;;;;5094791;28;20072;-76
2021/07/10 07:35:31;;;;;;;11.02;5.00;;;15.20;99.90;;;;;;5093483;28;20027;-76
2021/07/10 07:37:57;;;;;;;9.07;4.63;;;15.10;99.90;;;;;;5094753;28;20028;-75
2021/07/10 07:40:23;;;;;;;9.00;3.83;;;15.20;99.90;;;;;;5093216;28;20071;-75
2021/07/10 07:42:49;;;;;;;;;;;15.30;99.90;;;;;;5095539;28;20055;-75
2021/07/10 07:45:18;;;;;;;8.20;4.13;;;15.30;99.90;;;;;;5094875;28;19926;-76
2021/07/10 07:47:45;;;;;;;8.23;4.10;;;15.40;99.90;;;;;;5093205;28;20472;-76
2021/07/10 07:50:13;;;;;;;8.88;4.28;;;15.30;99.90;;;;;;5094543;28;20024;-75
2021/07/10 07:52:39;;;;;;;8.38;4.00;;;15.30;99.90;;;;;;5094513;28;20133;-76
2021/07/10 07:55:07;;;;;;;9.43;4.22;;;15.30;99.90;;;;;;5094454;28;20024;-76
2021/07/10 07:57:33;;;;;;;9.48;4.07;;;15.30;99.90;;;;;;5094412;28;20028;-77
2021/07/10 07:59:59;;;;;;;;;;;15.30;99.90;;;;;;5094548;28;20055;-76
2021/07/10 08:02:25;;;;;;;7.82;3.80;;;15.30;99.90;;;;;;5094526;28;20287;-76
2021/07/10 08:04:51;;;;;;;8.95;4.32;;;15.30;99.90;;;;;;5094284;28;20383;-76
2021/07/10 08:07:17;;;;;;;8.25;4.47;;;15.40;99.90;;;;;;5094005;28;20040;-76
2021/07/10 08:09:43;;;;;;;8.68;4.32;;;15.40;99.90;;;;;;5094220;28;20051;-76
2021/07/10 08:12:10;;;;;;;;;;;15.40;99.90;;;;;;5094574;28;20541;-76
2021/07/10 08:14:38;;;;;;;8.88;4.28;;;15.30;99.90;;;;;;5094422;28;20372;-76
2021/07/10 08:17:04;;;;;;;8.38;4.20;;;15.40;99.90;;;;;;5094030;28;20020;-77
2021/07/10 08:19:30;;;;;;;8.45;4.35;;;15.50;99.90;;;;;;5093935;28;20028;-77
2021/07/10 08:21:56;;;;;;;8.48;3.90;;;15.50;99.90;;;;;;5092490;28;20365;-76
2021/07/10 08:24:22;;;;;;;;;;;15.50;99.90;;;;;;5094260;28;20028;-75
2021/07/10 08:26:47;;;;;;;9.98;3.55;;;15.60;99.90;;;;;;5094191;28;20428;-76
2021/07/10 08:29:13;;;;;;;;;;;15.80;99.90;;;;;;5094258;28;20031;-77
2021/07/10 08:31:41;;;;;;;10.70;3.88;;;15.80;99.90;;;;;;5081337;27;19904;-75
2021/07/10 08:34:08;;;;;;;7.90;3.35;;;15.80;99.90;;;;;;5052894;28;20029;-77
2021/07/10 08:36:34;;;;;;;8.30;3.10;;;16.00;99.90;;;;;;5053040;28;20359;-76
2021/07/10 08:39:00;;;;;;;5.57;2.80;;;16.20;99.90;;;;;;5053087;28;20031;-75
2021/07/10 08:41:26;;;;;;;;;;;16.20;99.90;;;;;;5053388;28;20029;-76
2021/07/10 08:43:52;;;;;;;6.15;2.95;;;16.00;99.90;;;;;;5052583;28;19911;-77
2021/07/10 08:46:20;;;;;;;;;;;16.00;99.90;;;;;;5053151;28;20111;-76
2021/07/10 08:48:47;;;;;;;7.65;3.22;;;15.80;99.90;;;;;;5053279;28;19935;-78
2021/07/10 08:51:13;;;;;;;6.68;2.60;;;15.90;99.90;;;;;;5052657;28;20025;-77
2021/07/10 08:53:40;;;;;;;7.85;2.88;;;15.80;99.90;;;;;;5052371;28;20052;-76
2021/07/10 08:56:07;;;;;;;7.55;3.45;;;15.80;99.90;;;;;;5051196;28;20025;-77
2021/07/10 08:58:34;;;;;;;5.78;2.17;;;15.70;99.90;;;;;;5052634;28;20108;-76
2021/07/10 09:01:00;;;;;;;5.53;2.30;;;15.90;99.90;;;;;;5052304;28;20048;-76
2021/07/10 09:03:28;;;;;;;6.25;2.70;;;15.90;99.90;;;;;;5052505;28;20398;-76
2021/07/10 09:05:53;;;;;;;5.90;2.67;;;15.80;99.90;;;;;;5052360;28;20494;-76
2021/07/10 09:08:21;;;;;;;;;;;15.80;99.90;;;;;;5053108;28;20064;-76
2021/07/10 09:10:58;;;;;;;5.32;2.47;;;15.80;99.90;;;;;;5053190;28;19955;-75
2021/07/10 09:13:47;;;;;;;5.82;2.50;;;15.90;99.90;;;;;;5058019;28;20105;-76
2021/07/10 09:16:19;;;;;;;5.40;2.40;;;16.00;99.90;;;;;;5052870;28;20107;-76
2021/07/10 09:18:53;;;;;;;5.95;2.42;;;16.10;99.90;;;;;;5052684;28;20025;-77
2021/07/10 09:21:54;;;;;;;6.72;2.25;;;16.20;99.90;;;;;;5052538;28;20029;-76
2021/07/10 09:24:23;;;;;;;6.80;2.00;;;16.20;99.90;;;;;;4952419;29;20023;-76
2021/07/10 09:26:54;;;;;;;5.68;1.90;;;16.40;99.90;;;;;;5017443;28;20056;-76
2021/07/10 09:29:23;;;;;;;4.35;1.85;;;16.50;99.90;;;;;;5032093;28;20025;-77
2021/07/10 09:32:01;;;;;;;3.92;1.90;;;16.60;99.90;;;;;;5014173;28;20030;-76
2021/07/10 09:34:34;;;;;;;4.03;1.80;;;16.60;99.90;;;;;;5032235;28;20060;-75
2021/07/10 09:37:10;;;;;;;4.53;2.00;;;16.80;99.90;;;;;;5032677;28;20493;-75
2021/07/10 09:39:40;;;;;;;;;;;16.70;99.90;;;;;;5032973;28;20490;-77
2021/07/10 09:42:06;;;;;;;3.60;1.77;;;16.90;99.90;;;;;;5034089;28;20328;-77
2021/07/10 09:44:48;;;;;;;3.67;1.95;;;16.80;99.90;;;;;;5050948;28;20428;-75
2021/07/10 09:47:15;;;;;;;3.45;1.90;;;16.90;99.90;;;;;;5052425;28;20025;-75
2021/07/10 09:49:45;;;;;;;7.97;2.10;;;17.00;99.90;;;;;;5052257;28;20398;-76
2021/07/10 09:52:17;;;;;;;5.10;2.10;;;16.90;99.90;;;;;;5052007;28;20029;-76
2021/07/10 09:54:53;;;;;;;3.38;1.80;;;17.00;99.90;;;;;;5052679;28;20033;-76
2021/07/10 09:57:26;;;;;;;3.83;1.48;;;17.30;99.90;;;;;;5051852;28;20036;-77
2021/07/10 09:59:55;;;;;;;4.05;1.85;;;17.30;99.90;;;;;;5052271;28;20045;-77
2021/07/10 10:02:25;;;;;;;4.63;1.85;;;17.40;99.90;;;;;;5051833;28;20500;-75
2021/07/10 10:05:07;;;;;;;3.05;1.70;;;17.70;99.90;;;;;;5055231;28;20024;-77
2021/07/10 10:07:55;;;;;;;3.33;1.67;;;17.90;99.90;;;;;;5055638;28;20104;-78
2021/07/10 10:10:25;;;;;;;3.45;1.90;;;17.60;99.90;;;;;;5055590;28;20025;-77
2021/07/10 10:13:09;;;;;;;4.53;1.73;;;17.40;99.90;;;;;;5050973;28;20468;-77
2021/07/10 10:15:35;;;;;;;3.55;1.70;;;17.30;99.90;;;;;;5035886;28;20097;-76
2021/07/10 10:18:01;;;;;;;4.15;1.83;;;17.10;99.90;;;;;;5036010;28;20057;-76
2021/07/10 10:20:27;;;;;;;4.45;1.90;;;17.00;99.90;;;;;;5035339;28;20096;-77
2021/07/10 10:22:53;;;;;;;2.70;1.60;;;16.90;99.90;;;;;;5042888;28;20023;-76
2021/07/10 10:25:19;;;;;;;2.83;1.52;;;17.10;99.90;;;;;;5055662;28;20029;-75
2021/07/10 10:27:46;;;;;;;;;;;17.10;99.90;;;;;;5055994;28;20043;-77
2021/07/10 10:30:13;;;;;;;4.22;2.08;;;17.10;99.90;;;;;;5055571;28;19905;-77
2021/07/10 10:32:40;;;;;;;4.70;1.98;;;17.30;99.90;;;;;;5055718;28;20017;-77
2021/07/10 10:35:07;;;;;;;3.53;1.88;;;17.40;99.90;;;;;;5055939;28;20158;-76
2021/07/10 10:37:33;;;;;;;3.65;1.88;;;17.50;99.90;;;;;;5054367;28;20023;-77
2021/07/10 10:40:00;;;;;;;3.55;1.85;;;17.70;99.90;;;;;;5055624;28;20449;-78
2021/07/10 10:42:26;;;;;;;3.28;1.80;;;17.60;99.90;;;;;;5055611;28;20014;-76
2021/07/10 10:44:57;;;;;;;4.05;1.88;;;17.70;99.90;;;;;;5055608;28;20017;-77
2021/07/10 10:47:24;;;;;;;2.75;1.80;;;18.10;99.90;;;;;;5055578;28;20013;-78
2021/07/10 10:49:51;;;;;;;4.45;1.90;;;18.60;99.90;;;;;;5055490;28;20503;-78
2021/07/10 10:52:35;;;;;;;4.28;1.60;;;19.00;99.90;;;;;;5055448;28;20021;-78
2021/07/10 10:55:20;;;;;;;3.85;1.90;;;19.90;99.90;;;;;;5055723;28;20112;-80
2021/07/10 10:57:57;;;;;;;3.83;2.00;;;20.80;98.40;;;;;;5055524;28;20025;-78
2021/07/10 11:00:36;;;;;;;4.05;1.80;;;21.20;97.90;;;;;;5055154;28;20045;-78
2021/07/10 11:03:12;;;;;;;4.10;2.00;;;22.00;95.70;;;;;;5055252;28;20044;-79
2021/07/10 11:05:41;;;;;;;6.65;2.20;;;22.00;96.40;;;;;;5055279;28;20100;-79
2021/07/10 11:08:21;;;;;;;5.32;1.88;;;23.70;94.40;;;;;;5055154;28;20512;-78
2021/07/10 11:11:07;;;;;;;5.57;2.08;;;24.40;95.10;;;;;;5053843;28;20507;-79
2021/07/10 11:13:36;;;;;;;3.50;1.90;;;25.40;91.60;;;;;;5043338;28;20033;-80
2021/07/10 11:16:16;;;;;;;5.40;1.98;;;26.40;88.70;;;;;;5055105;28;20033;-79
2021/07/10 11:19:08;;;;;;;5.25;1.90;;;25.80;87.90;;;;;;5055120;28;20030;-79
2021/07/10 11:21:48;;;;;;;3.85;1.63;;;26.40;82.00;;;;;;5054925;28;20021;-79
2021/07/10 11:27:08;;;;;;;6.13;2.00;;;25.30;87.60;;;;;;5054839;28;20096;-79
2021/07/10 11:29:35;;;;;;;6.18;2.10;;;26.70;88.00;;;;;;5045593;28;20029;-79
2021/07/10 11:32:14;;;;;;;5.25;2.00;;;25.20;83.10;;;;;;5054688;28;20024;-79
2021/07/10 11:34:45;;;;;;;4.68;2.00;;;23.90;90.70;;;;;;5054759;28;20550;-79
2021/07/10 11:37:12;;;;;;;3.97;1.80;;;24.30;90.30;;;;;;5054635;28;20035;-80
2021/07/10 11:39:42;;;;;;;4.65;1.90;;;25.50;91.90;;;;;;5053276;28;20029;-78
2021/07/10 11:42:18;;;;;;;2.72;1.60;;;25.70;82.00;;;;;;5054512;28;20025;-77
2021/07/10 11:44:45;;;;;;;5.00;1.90;;;25.60;80.20;;;;;;5053214;28;20078;-78
2021/07/10 11:47:10;;;;;;;3.70;1.60;;;26.70;89.20;;;;;;5053189;28;20022;-78
2021/07/10 11:49:36;;;;;;;5.80;1.75;;;27.40;75.90;;;;;;5054675;28;20025;-79
2021/07/10 11:52:16;;;;;;;4.00;1.70;;;27.40;84.30;;;;;;5054432;28;20389;-78
2021/07/10 11:54:56;;;;;;;6.88;1.88;;;25.70;79.90;;;;;;5054346;28;20103;-76
2021/07/10 11:57:25;;;;;;;5.15;1.90;;;25.40;87.20;;;;;;5052695;28;20021;-77
2021/07/10 11:59:50;;;;;;;4.50;1.92;;;26.30;80.40;;;;;;5054105;28;20053;-77
2021/07/10 12:02:17;;;;;;;4.85;1.90;;;26.40;77.60;;;;;;5052818;28;20029;-78
2021/07/10 12:05:05;;;;;;;4.72;2.00;;;25.80;73.10;;;;;;5054099;28;20036;-78
2021/07/10 12:07:33;;;;;;;6.00;2.10;;;26.40;73.00;;;;;;5054269;28;20017;-77
2021/07/10 12:09:59;;;;;;;6.65;2.00;;;26.20;71.30;;;;;;5052664;28;20481;-79
2021/07/10 12:12:25;;;;;;;4.50;2.05;;;25.90;73.20;;;;;;5053931;28;20025;-78
2021/07/10 12:14:56;;;;;;;4.28;1.90;;;26.40;72.50;;;;;;5052635;28;20035;-77
2021/07/10 12:17:23;;;;;;;4.35;2.00;;;27.00;70.10;;;;;;5052481;28;20032;-77
2021/07/10 12:19:50;;;;;;;6.85;2.20;;;25.20;70.30;;;;;;5052514;28;20029;-77
2021/07/10 12:22:17;;;;;;;5.38;2.10;;;25.70;72.20;;;;;;5053704;28;20028;-77
2021/07/10 12:24:43;;;;;;;5.10;1.90;;;26.80;68.00;;;;;;5053661;28;20024;-78
2021/07/10 12:27:11;;;;;;;4.40;1.80;;;27.70;67.80;;;;;;5053461;28;20039;-77
2021/07/10 12:29:37;;;;;;;5.60;1.92;;;28.10;64.90;;;;;;5053669;28;20029;-78
2021/07/10 12:32:13;;;;;;;4.30;2.00;;;26.80;69.40;;;;;;5053753;28;20389;-76
2021/07/10 12:34:48;;;;;;;6.10;1.80;;;27.10;71.60;;;;;;5053577;28;20029;-77
2021/07/10 12:37:26;;;;;;;5.90;1.90;;;28.70;68.90;;;;;;5053734;28;20489;-77
2021/07/10 12:39:52;;;;;;;4.05;2.10;;;28.30;64.60;;;;;;5051985;28;20033;-77
2021/07/10 12:42:19;;;;;;;5.60;1.70;;;28.10;67.70;;;;;;5053435;28;20126;-77
2021/07/10 12:44:45;;;;;;;4.88;1.88;;;26.50;66.20;;;;;;5053448;28;20112;-78
2021/07/10 12:47:20;;;;;;;4.15;1.98;;;26.00;71.00;;;;;;5053600;28;20431;-77
2021/07/10 12:49:55;;;;;;;4.20;1.80;;;27.50;69.00;;;;;;5053616;28;20056;-76
2021/07/10 12:52:31;;;;;;;4.97;1.58;;;28.10;64.30;;;;;;5053262;28;20025;-75
2021/07/10 12:55:07;;;;;;;3.65;1.67;;;28.00;62.30;;;;;;5053275;28;20036;-77
2021/07/10 12:57:35;;;;;;;5.90;2.00;;;26.80;66.50;;;;;;5051733;28;20083;-76
2021/07/10 13:00:03;;;;;;;4.70;1.83;;;25.70;69.60;;;;;;5052800;28;20067;-77
2021/07/10 13:02:55;;;;;;;3.97;1.83;;;24.70;73.30;;;;;;5051917;28;20021;-76
2021/07/10 13:05:30;;;;;;;4.32;1.85;;;25.10;73.30;;;;;;5053392;28;20052;-77